Flight Track Log - Related Links

Times and Time Zones

All times are in EDT time to prevent confusion due to time zone crossing. See the TCF5980 flight status page for this flight to view local times or setup timezone preferences in your user account.

Time Position Orientation Groundspeed Altitude Reporting Facility
EDT Latitude Longitude Course Direction KTS MPH feet Rate Location/Type
Sat 02:48:38 PM 40.7500 -73.9000 299° West 157 181 1,400  Level New York TRACON
Sat 02:49:32 PM 40.7333 -73.8333 146° Southeast 232 267 3,100 2,579 Climbing New York TRACON
Sat 02:50:32 PM 40.8000 -73.8333 360° North 213 245 6,300 2,950 Climbing New York TRACON
Sat 02:51:00 PM 40.9473 -74.2612 304° West  Level FlightAware Approximate
Sat 02:51:32 PM 40.8667 -73.8333 360° North 226 260 9,000  Level New York TRACON
Sat 02:52:00 PM 40.9967 -74.3652 299° West  Level FlightAware Approximate
Sat 02:53:00 PM 41.0415 -74.4729 299° West  Level FlightAware Approximate
Sat 02:54:02 PM 40.9569 -74.0078 304° West 256 295 14,200  Level New York Center
Sat 02:55:02 PM 40.9961 -74.0922 302° West 261 300 15,000 700 Climbing New York Center
Sat 02:56:02 PM 41.0272 -74.1761 296° West 266 306 15,600 750 Climbing New York Center
Sat 02:57:02 PM 41.0556 -74.2683 292° West 261 300 16,500 850 Climbing New York Center
Sat 02:58:02 PM 41.0844 -74.3469 296° West 261 300 17,300 1,000 Climbing New York Center
Sat 02:59:02 PM 41.1189 -74.4450 295° West 261 300 18,500 1,000 Climbing New York Center
Sat 03:00:02 PM 41.1478 -74.5211 297° West 261 300 19,300 1,000 Climbing New York Center
Sat 03:01:02 PM 41.1803 -74.6139 295° West 266 306 20,500 1,150 Climbing New York Center
Sat 03:02:02 PM 41.2106 -74.7094 293° West 271 312 21,600 900 Climbing New York Center
Sat 03:03:02 PM 41.2486 -74.8108 297° West 289 333 22,300 900 Climbing New York Center
Sat 03:04:02 PM 41.2864 -74.9264 294° West 316 364 23,400 1,100 Climbing New York Center
Sat 03:05:02 PM 41.3258 -75.0422 294° West 337 388 24,500 1,000 Climbing New York Center
Sat 03:06:02 PM 41.3656 -75.1581 295° West 342 394 25,400 1,000 Climbing New York Center
Sat 03:07:02 PM 41.4047 -75.2739 294° West 342 394 26,500 1,000 Climbing New York Center
Sat 03:08:02 PM 41.4439 -75.3956 293° West 347 399 27,400 1,000 Climbing New York Center
Sat 03:09:02 PM 41.4850 -75.5147 295° West 347 399 28,500 1,100 Climbing New York Center
Sat 03:10:02 PM 41.5197 -75.6361 291° West 347 399 29,600 750 Climbing New York Center
Sat 03:11:02 PM 41.5542 -75.7581 291° West 352 405 30,000 200 Climbing New York Center
Sat 03:12:02 PM 41.5883 -75.8825 290° West 352 405 30,000 600 Level New York Center
Sat 03:13:02 PM 41.6228 -76.0017 291° West 352 405 31,200 1,350 Climbing New York Center
Sat 03:14:02 PM 41.6606 -76.1350 291° West 352 405 32,700 1,150 Climbing New York Center
Sat 03:15:02 PM 41.6947 -76.2547 291° West 352 405 33,500 768 Climbing New York Center
Sat 03:17:33 PM 41.7792 -76.5556 291° West 349 402 35,400 708 Climbing Cleveland Center
Sat 03:18:34 PM 41.8133 -76.6797 290° West 352 405 36,000 293 Climbing Cleveland Center
Sat 03:19:36 PM 41.8478 -76.8047 290° West 357 411 36,000  Level Cleveland Center
Sat 03:20:37 PM 41.8814 -76.9300 290° West 357 411 36,000  Level Cleveland Center
Sat 03:21:39 PM 41.9169 -77.0561 291° West 358 412 36,000  Level Cleveland Center
Sat 03:22:41 PM 41.9492 -77.1819 289° West 358 412 36,000  Level Cleveland Center
Sat 03:23:42 PM 41.9836 -77.3067 290° West 358 412 36,000  Level Cleveland Center
Sat 03:24:44 PM 42.0228 -77.4542 290° West 352 405 36,000  Level Cleveland Center
Sat 03:25:46 PM 42.0556 -77.5739 290° West 347 399 36,000  Level Cleveland Center
Sat 03:26:47 PM 42.0889 -77.6983 290° West 348 400 36,000  Level Cleveland Center
Sat 03:27:49 PM 42.1222 -77.8203 290° West 348 400 36,000  Level Cleveland Center
Sat 03:28:50 PM 42.1553 -77.9439 290° West 348 400 36,000  Level Cleveland Center
Sat 03:29:52 PM 42.1883 -78.0644 290° West 346 398 36,000  Level Cleveland Center
Sat 03:30:54 PM 42.2208 -78.1867 290° West 346 398 36,000  Level Cleveland Center
Sat 03:31:55 PM 42.2519 -78.3092 289° West 346 398 36,000  Level Cleveland Center
Sat 03:32:57 PM 42.2828 -78.4331 289° West 346 398 36,000  Level Cleveland Center
Sat 03:33:59 PM 42.3194 -78.5803 289° West 346 398 36,000  Level Cleveland Center
Sat 03:35:00 PM 42.3489 -78.7036 288° West 346 398 36,000  Level Cleveland Center
Sat 03:36:02 PM 42.3797 -78.8289 288° West 349 402 36,000  Level Cleveland Center
Sat 03:37:04 PM 42.4083 -78.9481 288° West 350 403 36,000  Level Cleveland Center
Sat 03:38:05 PM 42.4369 -79.0703 288° West 346 398 36,000  Level Cleveland Center
Sat 03:39:07 PM 42.4714 -79.1975 290° West 343 395 36,000  Level Cleveland Center
Sat 03:40:08 PM 42.5011 -79.3233 288° West 352 405 36,000  Level Cleveland Center
Sat 03:41:10 PM 42.5314 -79.4489 288° West 351 404 36,000  Level Cleveland Center
Sat 03:42:12 PM 42.5681 -79.5997 288° West 351 404 36,000  Level Cleveland Center
Sat 03:43:14 PM 42.5969 -79.7258 287° West 351 404 36,000  Level Cleveland Center
Sat 03:44:15 PM 42.6156 -79.8547 281° West 349 402 36,000  Level Cleveland Center
Sat 03:45:17 PM 42.6192 -79.9853 272° West 352 405 36,000  Level Cleveland Center
Sat 03:46:18 PM 42.6253 -80.1189 274° West 351 404 36,000  Level Cleveland Center
Sat 03:47:20 PM 42.6303 -80.2517 273° West 351 404 36,000  Level Cleveland Center
Sat 03:48:22 PM 42.6367 -80.3847 274° West 352 405 36,000  Level Cleveland Center
Sat 03:49:23 PM 42.6428 -80.5406 273° West 352 405 36,000  Level Cleveland Center
Sat 03:50:25 PM 42.6467 -80.6736 272° West 351 404 36,000  Level Cleveland Center
Sat 03:51:27 PM 42.6522 -80.8097 273° West 357 411 36,000  Level Cleveland Center
Sat 03:52:28 PM 42.6561 -80.9439 272° West 356 410 36,000  Level Cleveland Center
Sat 03:53:30 PM 42.6606 -81.0764 273° West 351 404 36,000  Level Cleveland Center
Sat 03:54:32 PM 42.6642 -81.2100 272° West 352 405 36,000  Level Cleveland Center
Sat 03:55:33 PM 42.6750 -81.3436 276° West 353 406 36,000  Level Cleveland Center
Sat 03:56:37 PM 42.6906 -81.4758 279° West 353 406 36,000  Level Cleveland Center
Sat 03:57:37 PM 42.7061 -81.6081 279° West 353 406 36,000  Level Cleveland Center
Sat 03:58:39 PM 42.7231 -81.7622 279° West 353 406 36,000  Level Cleveland Center
Sat 03:59:40 PM 42.7392 -81.8983 279° West 352 405 36,000  Level Cleveland Center
Sat 04:00:42 PM 42.7519 -82.0297 278° West 352 405 36,000  Level Cleveland Center
Sat 04:01:44 PM 42.7675 -82.1608 279° West 352 405 36,000  Level Cleveland Center
Sat 04:02:46 PM 42.7814 -82.2939 278° West 353 406 36,000  Level Cleveland Center
Sat 04:03:48 PM 42.7947 -82.4253 278° West 353 406 36,000  Level Cleveland Center
Sat 04:04:50 PM 42.8106 -82.5569 279° West 354 407 36,000  Level Cleveland Center
Sat 04:05:51 PM 42.8303 -82.7125 280° West 351 404 36,000  Level Cleveland Center
Sat 04:06:53 PM 42.8489 -82.8428 281° West 351 404 36,000  Level Cleveland Center
Sat 04:07:55 PM 42.8664 -82.9742 280° West 352 405 36,000  Level Cleveland Center
Sat 04:08:57 PM 42.8836 -83.1042 280° West 352 405 36,000  Level Cleveland Center
Sat 04:09:59 PM 42.9008 -83.2339 280° West 352 405 36,000  Level Cleveland Center
Sat 04:11:01 PM 42.9169 -83.3642 280° West 352 405 36,000  Level Cleveland Center
Sat 04:12:02 PM 42.9375 -83.5203 280° West 351 404 36,000  Level Cleveland Center
Sat 04:13:04 PM 42.9539 -83.6506 280° West 351 404 36,000  Level Cleveland Center
Sat 04:14:06 PM 42.9700 -83.7819 280° West 352 405 36,000  Level Cleveland Center
Sat 04:15:08 PM 42.9833 -83.9131 278° West 351 404 36,000  Level Cleveland Center
Sat 04:16:10 PM 42.9947 -84.0447 277° West 352 405 36,000  Level Cleveland Center
Sat 04:17:11 PM 43.0075 -84.1747 278° West 351 404 36,000  Level Cleveland Center
Sat 04:18:13 PM 43.0217 -84.3314 277° West 349 402 36,000  Level Cleveland Center
Sat 04:19:15 PM 43.0333 -84.4464 278° West 349 402 36,000  Level Cleveland Center
Sat 04:20:17 PM 43.0458 -84.5786 277° West 349 402 36,000  Level Cleveland Center
Sat 04:21:19 PM 43.0597 -84.7378 277° West 351 404 36,000  Level Cleveland Center
Sat 04:22:20 PM 43.0722 -84.8700 277° West 352 405 36,000  Level Cleveland Center
Sat 04:23:22 PM 43.0836 -85.0014 277° West 352 405 36,000  Level Cleveland Center
Sat 04:24:24 PM 43.0947 -85.1344 277° West 352 405 36,000 -145 Level Cleveland Center
Sat 04:25:26 PM 43.1058 -85.2664 277° West 352 405 35,700 -732 Descending Cleveland Center
Sat 04:26:27 PM 43.1167 -85.3986 276° West 351 404 34,500 -1,268 Descending Cleveland Center
Sat 04:27:29 PM 43.1292 -85.5511 276° West 338 389 33,100 -726 Descending Cleveland Center
Sat 04:28:31 PM 43.1392 -85.6719 277° West 326 375 33,000 -774 Descending Cleveland Center
Sat 04:29:33 PM 43.1492 -85.7950 276° West 326 375 31,500 -1,610 Descending Cleveland Center
Sat 04:30:34 PM 43.1592 -85.9158 277° West 326 375 29,700 -1,805 Descending Cleveland Center
Sat 04:31:36 PM 43.1689 -86.0386 276° West 328 377 27,800 -2,081 Descending Cleveland Center
Sat 04:32:38 PM 43.1675 -86.1839 269° West 328 377 25,400 -1,887 Descending Cleveland Center
Sat 04:33:40 PM 43.1650 -86.3028 268° West 320 368 23,900 -1,479 Descending Cleveland Center
Sat 04:35:00 PM 43.1633 -86.4483 269° West 319 367 21,900 -1,690 Descending Chicago Center
Sat 04:36:02 PM 43.1608 -86.5917 269° West 319 367 19,900 -1,756 Descending Chicago Center
Sat 04:37:03 PM 43.1589 -86.7078 269° West 312 359 18,300 -1,512 Descending Chicago Center
Sat 04:38:05 PM 43.1561 -86.8222 268° West 306 352 16,800 -1,597 Descending Chicago Center
Sat 04:39:07 PM 43.1547 -86.9386 269° West 306 352 15,000 -1,403 Descending Chicago Center
Sat 04:40:09 PM 43.1511 -87.0550 268° West 306 352 13,900 -829 Descending Chicago Center
Sat 04:41:10 PM 43.1483 -87.1703 268° West 306 352 13,300 -1,024 Descending Chicago Center
Sat 04:42:12 PM 43.1442 -87.3047 268° West 300 345 11,800 -1,452 Descending Chicago Center
Sat 04:43:14 PM 43.1381 -87.4097 265° West 272 313 10,300 -1,366 Descending Chicago Center
Sat 04:44:15 PM 43.1314 -87.5008 264° West 247 284 9,000 -1,561 Descending Chicago Center
Sat 04:45:17 PM 43.1233 -87.5906 263° West 239 275 7,100 -968 Descending Chicago Center
Sat 04:46:19 PM 43.1086 -87.6786 257° West 239 275 7,000 -48 Descending Chicago Center
Sat 04:47:21 PM 43.0747 -87.7603 240° Southwest 247 284 7,000  Level Chicago Center
Sat 04:48:22 PM 43.0081 -87.7756 190° South 262 302 7,000 -390 Level Chicago Center
Sat 04:49:24 PM 42.9283 -87.7711 178° South 242 278 6,200 -1,161 Descending Chicago Center
Sat 04:50:26 PM 42.8675 -87.7700 179° South 227 261 4,600 -1,306 Descending Chicago Center
Sat 04:51:28 PM 42.8053 -87.7708 181° South 225 259 3,500 -968 Descending Chicago Center
Sat 04:52:30 PM 42.7764 -87.8156 229° Southwest 217 250 2,600 -439 Descending Chicago Center
Sat 04:53:31 PM 42.7956 -87.8767 293° West 190 219 2,600  Level Chicago Center
Sat 04:54:33 PM 42.8292 -87.9156 320° Northwest 190 219 2,600 -290 Level Chicago Center
Sat 04:55:35 PM 42.8747 -87.9064 North 178 205 2,000 -484 Descending Chicago Center
Sat 04:56:37 PM 42.9256 -87.8967 North 172 198 1,600 -387 Descending Chicago Center

Login

Don't have an account? Register now (free) for customized features, flight alerts, and more!